Terminal Aerodrome Forecast
Issued by NWS Glasgow, MT

Home | Current Version | Previous Version | Text Only | Print | Product List | Glossary On
Versions: 1 2 3 4 5 6 7 8 9 10 11 12 13
000
FTUS45 KGGW 172320
TAFGGW
TAF
KGGW 172320Z 1800/1824 24007KT P6SM BKN150 WS020/25035KT
     FM180400 27014KT P6SM SCT150 WS020/27050KT
     FM180600 27020G32KT P6SM FEW150
     FM182200 25010KT P6SM FEW160=

USA.gov is the U.S. government's official web portal to all federal, state and local government web resources and services.